»·PEaware :: N2822D KVNY-KFUL

N2822D :: KVNY-KFUL

FLIGHT INFORMATION

Flight Status: Arrived
Operator: Privately registered:
United States
More flights under this callsign
Pilot: Alex C. (14758)
Aircraft: BEECH AIRCRAFT BARON
(BE58)
More flights by this aircraft type
Origin: KVNY Van Nuys
United States
Destination: KFUL Fullerton Mun
United States
More flights between these airports :: More routes between these airports
Route: ADAMM2 ADAMM V394 SLI
File this flight plan on PilotEdge
Remarks:
Altitude:
(Current/Filed)
5,000ft
Speed:
(Current/Filed)
195kts
Departed: 04-Jul-18 07:00 PM
Arrived: 04-Jul-18 07:38 PM
Distance/Time
Traveled:
32nm/0:38
Distance/Time
To Go:
Arrived

Flight Plot

Page will automatically refresh every two minutes.

Flight plan parsing failed; only flown route is shown


Map Options




Map Legend


Flown Route
Filed Route
Departure Airport
Arrival Airport
Navaid (VOR, NDB)
Fix

Horizontal Profiles

Position Reports

Time Latitude Longitude Heading Altitude Ground
Speed
04-Jul-18 18:31 34.218675 -118.496141 184 805ft 0kts
04-Jul-18 18:32 34.218675 -118.496141 184 805ft 0kts
04-Jul-18 18:33 34.218675 -118.496141 184 805ft 0kts
04-Jul-18 18:34 34.218675 -118.496141 184 805ft 0kts
04-Jul-18 18:35 34.218675 -118.496141 184 805ft 0kts
04-Jul-18 18:36 34.218675 -118.496141 184 805ft 0kts
04-Jul-18 18:37 34.218675 -118.496141 184 805ft 0kts
04-Jul-18 18:38 34.218675 -118.496141 184 805ft 0kts
04-Jul-18 18:39 34.218675 -118.496141 184 805ft 0kts
04-Jul-18 18:40 34.218675 -118.496141 184 805ft 0kts
04-Jul-18 18:41 34.218675 -118.496141 184 805ft 0kts
04-Jul-18 18:47 34.218675 -118.496141 184 805ft 0kts
04-Jul-18 18:48 34.218675 -118.496141 184 805ft 0kts
04-Jul-18 18:49 34.218675 -118.496141 184 805ft 0kts
04-Jul-18 18:50 34.218675 -118.496141 184 805ft 0kts
04-Jul-18 18:51 34.218675 -118.496141 184 805ft 0kts
04-Jul-18 18:52 34.218675 -118.496141 184 805ft 0kts
04-Jul-18 18:53 34.218675 -118.496141 184 805ft 0kts
04-Jul-18 18:54 34.218381 -118.496116 152 805ft 7kts
04-Jul-18 18:55 34.218563 -118.496162 187 805ft 14kts
04-Jul-18 18:56 34.217456 -118.494758 124 805ft 15kts
04-Jul-18 18:57 34.217251 -118.492444 50 805ft 16kts
04-Jul-18 18:58 34.218702 -118.492141 65 805ft 0kts
04-Jul-18 18:59 34.218702 -118.492141 65 805ft 0kts
04-Jul-18 19:00 34.218774 -118.491549 109 805ft 13kts
04-Jul-18 19:01 34.212807 -118.490697 174 850ft 105kts
04-Jul-18 19:02 34.199100 -118.489098 174 1507ft 114kts
04-Jul-18 19:03 34.184396 -118.481811 128 2598ft 115kts
04-Jul-18 19:04 34.176153 -118.466338 125 3555ft 117kts
04-Jul-18 19:05 34.169832 -118.449740 108 4493ft 120kts
04-Jul-18 19:06 34.166152 -118.430619 107 5034ft 143kts
04-Jul-18 19:07 34.161672 -118.407786 106 5041ft 174kts
04-Jul-18 19:08 34.156086 -118.378602 105 5031ft 190kts
04-Jul-18 19:09 34.149876 -118.346201 105 5028ft 197kts
04-Jul-18 19:10 34.143281 -118.312152 105 5027ft 202kts
04-Jul-18 19:11 34.137179 -118.280269 105 5028ft 203kts
04-Jul-18 19:12 34.131001 -118.248444 105 5027ft 204kts
04-Jul-18 19:13 34.124820 -118.216836 104 5027ft 203kts
04-Jul-18 19:14 34.118590 -118.184298 104 5026ft 202kts
04-Jul-18 19:15 34.111755 -118.149902 102 5027ft 204kts
04-Jul-18 19:15 34.105937 -118.119068 103 5028ft 207kts
04-Jul-18 19:17 34.096793 -118.075154 111 5025ft 208kts
04-Jul-18 19:17 34.087939 -118.046537 111 5027ft 208kts
04-Jul-18 19:18 34.080261 -118.021641 111 5026ft 206kts
04-Jul-18 19:19 34.071493 -117.993161 112 5026ft 204kts
04-Jul-18 19:20 34.063065 -117.965801 112 5026ft 203kts
04-Jul-18 19:21 34.054350 -117.937518 112 5026ft 202kts
04-Jul-18 19:22 34.044952 -117.907040 112 5026ft 202kts
04-Jul-18 19:23 34.034597 -117.873486 112 5026ft 202kts
04-Jul-18 19:24 34.016733 -117.847347 168 4986ft 173kts
04-Jul-18 19:25 33.987845 -117.840579 171 4687ft 166kts
04-Jul-18 19:26 33.957641 -117.833417 171 4324ft 154kts
04-Jul-18 19:27 33.932827 -117.827323 171 3945ft 128kts
04-Jul-18 19:28 33.912374 -117.823849 196 3604ft 117kts
04-Jul-18 19:29 33.905019 -117.842095 270 3279ft 123kts
04-Jul-18 19:30 33.901920 -117.864944 243 3022ft 117kts
04-Jul-18 19:31 33.894345 -117.884399 238 2734ft 116kts
04-Jul-18 19:32 33.887867 -117.902528 250 2114ft 109kts
04-Jul-18 19:33 33.884226 -117.920295 253 1368ft 109kts
04-Jul-18 19:34 33.880539 -117.937199 249 932ft 101kts
04-Jul-18 19:35 33.877291 -117.953175 254 611ft 103kts
04-Jul-18 19:36 33.874399 -117.968159 252 285ft 99kts
04-Jul-18 19:37 33.871584 -117.982006 252 99ft 66kts
04-Jul-18 19:38 33.870652 -117.984663 140 99ft 10kts

Navigation Log

Ident Type
Flight plan parsing failed, navigation log unavailable